createdAt,value
2018-11-23T00:02:17.743Z,74.00
2018-11-23T00:04:51.663Z,74.00
2018-11-23T00:07:26.043Z,73.90
2018-11-23T00:09:59.599Z,74.00
2018-11-23T00:12:33.439Z,73.90
2018-11-23T00:15:09.019Z,73.90
2018-11-23T00:17:42.847Z,74.10
2018-11-23T00:20:20.366Z,74.00
2018-11-23T00:22:54.318Z,74.00
2018-11-23T00:25:28.138Z,74.00
2018-11-23T00:28:02.501Z,74.00
2018-11-23T00:30:36.122Z,74.00
2018-11-23T00:33:10.098Z,74.00
2018-11-23T00:35:44.019Z,74.00
2018-11-23T00:38:18.791Z,74.10
2018-11-23T00:40:53.380Z,74.10
2018-11-23T00:43:27.025Z,74.10
2018-11-23T00:46:00.849Z,74.10
2018-11-23T00:48:34.523Z,74.20
2018-11-23T00:51:08.162Z,74.10
2018-11-23T00:53:42.165Z,74.10
2018-11-23T00:56:15.854Z,74.10
2018-11-23T00:58:49.982Z,74.10
2018-11-23T01:01:23.617Z,74.10
2018-11-23T01:03:57.448Z,74.00
2018-11-23T01:06:31.150Z,74.00
2018-11-23T01:09:07.856Z,74.00
2018-11-23T01:11:42.514Z,74.00
2018-11-23T01:14:16.062Z,74.10
2018-11-23T01:16:49.585Z,74.20
2018-11-23T01:19:23.938Z,74.20
2018-11-23T01:21:58.022Z,74.10
2018-11-23T01:24:31.430Z,74.10
2018-11-23T01:27:05.334Z,74.10
2018-11-23T01:29:39.707Z,74.10
2018-11-23T01:32:13.519Z,74.00
2018-11-23T01:34:47.175Z,74.10
2018-11-23T01:37:21.105Z,74.00
2018-11-23T01:39:54.662Z,74.10
2018-11-23T01:42:28.666Z,74.10
2018-11-23T01:45:02.355Z,74.00
2018-11-23T01:47:35.968Z,74.20
2018-11-23T01:50:14.821Z,75.00
2018-11-23T01:52:48.966Z,74.20
2018-11-23T01:55:23.945Z,74.30
2018-11-23T01:57:58.016Z,74.40
2018-11-23T02:00:31.518Z,74.40
2018-11-23T02:03:05.043Z,74.30
2018-11-23T02:05:38.680Z,74.20
2018-11-23T02:08:12.652Z,74.20
2018-11-23T02:10:46.220Z,74.20
2018-11-23T02:13:20.147Z,74.20
2018-11-23T02:15:53.742Z,74.20
2018-11-23T02:18:27.585Z,74.20
2018-11-23T02:21:01.152Z,74.20
2018-11-23T02:23:34.735Z,74.20
2018-11-23T02:26:08.495Z,74.20
2018-11-23T02:28:42.201Z,74.20
2018-11-23T02:31:15.968Z,74.30
2018-11-23T02:33:49.666Z,74.30
2018-11-23T02:36:23.559Z,74.20
2018-11-23T02:38:57.180Z,74.20
2018-11-23T02:41:31.223Z,74.20
2018-11-23T02:44:04.910Z,74.90
2018-11-23T02:46:38.494Z,74.20
2018-11-23T02:49:12.251Z,74.20
2018-11-23T02:51:45.830Z,74.20
2018-11-23T02:54:19.512Z,74.10
2018-11-23T02:56:53.485Z,74.20
2018-11-23T02:59:26.957Z,74.20
2018-11-23T03:02:00.617Z,74.20
2018-11-23T03:04:34.174Z,74.10
2018-11-23T03:07:08.289Z,73.80
2018-11-23T03:09:41.958Z,73.60
2018-11-23T03:12:15.613Z,73.50
2018-11-23T03:14:49.426Z,73.40
2018-11-23T03:17:23.769Z,73.30
2018-11-23T03:19:57.461Z,73.20
2018-11-23T03:22:31.148Z,73.30
2018-11-23T03:25:05.788Z,73.30
2018-11-23T03:27:39.473Z,73.50
2018-11-23T03:30:15.579Z,73.70
2018-11-23T03:32:49.852Z,73.90
2018-11-23T03:35:23.915Z,74.00
2018-11-23T03:37:58.007Z,73.90
2018-11-23T03:40:31.543Z,73.90
2018-11-23T03:43:05.876Z,74.00
2018-11-23T03:45:40.529Z,74.00
2018-11-23T03:48:14.485Z,74.00
2018-11-23T03:50:49.210Z,74.00
2018-11-23T03:53:23.355Z,73.90
2018-11-23T03:55:57.279Z,74.00
2018-11-23T03:58:30.848Z,74.00
2018-11-23T04:01:04.866Z,74.00
2018-11-23T04:03:39.657Z,73.90
2018-11-23T04:06:14.498Z,74.00
2018-11-23T04:08:49.090Z,74.40
2018-11-23T04:11:23.675Z,74.00
2018-11-23T04:13:57.307Z,74.10
2018-11-23T04:16:30.855Z,74.00
2018-11-23T04:19:04.749Z,74.00
2018-11-23T04:21:39.194Z,74.00
2018-11-23T04:24:12.878Z,74.00
2018-11-23T04:26:46.655Z,74.00
2018-11-23T04:29:20.342Z,74.10
2018-11-23T04:31:54.218Z,74.00
2018-11-23T04:34:27.844Z,74.00
2018-11-23T04:37:01.379Z,73.90
2018-11-23T04:39:35.108Z,73.90
2018-11-23T04:42:08.771Z,73.90
2018-11-23T04:44:42.602Z,73.80
2018-11-23T04:47:16.152Z,73.90
2018-11-23T04:49:49.744Z,73.70
2018-11-23T04:52:23.475Z,74.40
2018-11-23T04:54:57.495Z,73.60
2018-11-23T04:57:31.090Z,73.60
2018-11-23T05:00:07.341Z,73.60
2018-11-23T05:02:42.078Z,73.50
2018-11-23T05:05:15.953Z,73.50
2018-11-23T05:07:49.558Z,73.50
2018-11-23T05:10:23.447Z,73.60
2018-11-23T05:12:57.290Z,73.70
2018-11-23T05:15:31.215Z,73.70
2018-11-23T05:18:04.950Z,73.70
2018-11-23T05:20:38.908Z,73.50
2018-11-23T05:23:13.805Z,73.30
2018-11-23T05:25:48.511Z,73.20
2018-11-23T05:28:22.486Z,73.20
2018-11-23T05:30:57.156Z,73.10
2018-11-23T05:33:31.399Z,73.00
2018-11-23T05:36:05.303Z,73.00
2018-11-23T05:38:38.876Z,73.00
2018-11-23T05:41:12.630Z,72.90
2018-11-23T05:43:46.100Z,72.80
2018-11-23T05:46:20.147Z,72.70
2018-11-23T05:48:53.706Z,72.70
2018-11-23T05:51:27.349Z,72.60
2018-11-23T05:54:01.056Z,72.60
2018-11-23T05:56:34.683Z,72.50
2018-11-23T05:59:08.479Z,72.50
2018-11-23T06:01:42.191Z,72.40
2018-11-23T06:04:16.038Z,72.40
2018-11-23T06:06:49.738Z,72.40
2018-11-23T06:09:23.538Z,72.40
2018-11-23T06:11:57.461Z,72.40
2018-11-23T06:14:31.033Z,73.10
2018-11-23T06:17:11.617Z,72.40
2018-11-23T06:19:45.754Z,72.50
2018-11-23T06:22:20.182Z,72.70
2018-11-23T06:24:53.740Z,73.60
2018-11-23T06:27:27.431Z,73.20
2018-11-23T06:30:01.279Z,73.40
2018-11-23T06:32:47.310Z,73.70
2018-11-23T06:35:21.217Z,73.80
2018-11-23T06:37:54.962Z,73.90
2018-11-23T06:40:28.535Z,73.80
2018-11-23T06:43:02.126Z,73.90
2018-11-23T06:45:38.448Z,74.00
2018-11-23T06:48:12.646Z,74.00
2018-11-23T06:50:46.218Z,73.90
2018-11-23T06:53:19.933Z,73.90
2018-11-23T06:55:54.020Z,73.90
2018-11-23T06:58:28.209Z,73.80
2018-11-23T07:01:01.931Z,73.60
2018-11-23T07:03:35.976Z,73.50
2018-11-23T07:06:10.047Z,73.50
2018-11-23T07:08:43.821Z,73.40
2018-11-23T07:11:17.993Z,73.40
2018-11-23T07:13:51.680Z,73.50
2018-11-23T07:16:25.450Z,73.40
2018-11-23T07:18:59.517Z,73.40
2018-11-23T07:21:33.207Z,74.20
2018-11-23T07:24:06.922Z,73.50
2018-11-23T07:26:40.853Z,73.50
2018-11-23T07:29:14.565Z,73.60
2018-11-23T07:31:48.378Z,73.60
2018-11-23T07:34:22.911Z,73.60
2018-11-23T07:36:56.549Z,74.30
2018-11-23T07:39:42.496Z,73.70
2018-11-23T07:42:21.160Z,73.70
2018-11-23T07:44:55.491Z,73.70
2018-11-23T07:47:29.998Z,73.90
2018-11-23T07:50:05.549Z,73.90
2018-11-23T07:52:39.340Z,74.00
2018-11-23T07:55:13.105Z,74.00
2018-11-23T07:57:46.959Z,74.00
2018-11-23T08:00:22.400Z,74.00
2018-11-23T08:02:56.760Z,74.10
2018-11-23T08:05:30.595Z,74.20
2018-11-23T08:08:04.921Z,74.20
2018-11-23T08:10:38.797Z,74.30
2018-11-23T08:13:12.627Z,74.30
2018-11-23T08:15:46.118Z,74.40
2018-11-23T08:18:19.826Z,74.50
2018-11-23T08:20:53.766Z,74.50
2018-11-23T08:23:27.310Z,74.60
2018-11-23T08:26:01.026Z,74.70
2018-11-23T08:28:35.349Z,74.80
2018-11-23T08:31:09.165Z,74.90
2018-11-23T08:33:42.777Z,74.90
2018-11-23T08:36:16.598Z,75.00
2018-11-23T08:38:50.610Z,75.30
2018-11-23T08:41:24.991Z,75.30
2018-11-23T08:43:58.907Z,75.40
2018-11-23T08:46:32.618Z,76.20
2018-11-23T08:49:06.253Z,75.60
2018-11-23T08:51:40.050Z,75.60
2018-11-23T08:54:13.726Z,75.60
2018-11-23T08:56:48.192Z,75.60
2018-11-23T08:59:22.023Z,75.70
2018-11-23T09:01:55.669Z,75.20
2018-11-23T09:04:29.660Z,75.80
2018-11-23T09:07:03.100Z,75.90
2018-11-23T09:09:36.878Z,76.80
2018-11-23T09:12:10.578Z,76.20
2018-11-23T09:14:44.243Z,76.30
2018-11-23T09:17:18.244Z,76.40
2018-11-23T09:19:51.892Z,76.40
2018-11-23T09:22:25.427Z,76.50
2018-11-23T09:24:59.143Z,76.50
2018-11-23T09:27:32.934Z,76.60
2018-11-23T09:30:12.214Z,76.70
2018-11-23T09:32:46.959Z,76.60
2018-11-23T09:35:21.290Z,76.70
2018-11-23T09:37:54.977Z,76.70
2018-11-23T09:40:30.011Z,76.80
2018-11-23T09:43:04.463Z,76.80
2018-11-23T09:45:38.745Z,76.80
2018-11-23T09:48:12.344Z,76.90
2018-11-23T09:50:46.087Z,76.90
2018-11-23T09:53:19.722Z,76.90
2018-11-23T09:55:53.654Z,77.00
2018-11-23T09:58:27.305Z,77.00
2018-11-23T10:01:01.300Z,77.00
2018-11-23T10:03:34.771Z,77.20
2018-11-23T13:15:28.326Z,75.20
2018-11-23T13:18:02.064Z,75.00
2018-11-23T13:20:35.930Z,75.20
2018-11-23T13:23:09.645Z,75.20
2018-11-23T13:25:44.043Z,75.00
2018-11-23T13:28:18.469Z,74.80
2018-11-23T13:30:52.212Z,74.50
2018-11-23T13:33:27.038Z,74.30
2018-11-23T13:36:01.710Z,74.20
2018-11-23T13:38:36.425Z,74.40
2018-11-23T13:41:10.499Z,74.50
2018-11-23T13:43:45.115Z,75.40
2018-11-23T13:46:19.664Z,74.60
2018-11-23T13:48:54.183Z,74.60
2018-11-23T13:51:28.068Z,75.20
2018-11-23T13:54:01.845Z,74.20
2018-11-23T13:56:36.162Z,74.00
2018-11-23T13:59:09.703Z,74.00
2018-11-23T14:01:43.339Z,74.00
2018-11-23T14:04:17.145Z,73.90
2018-11-23T14:06:50.834Z,73.90
2018-11-23T14:09:24.638Z,73.70
2018-11-23T14:11:58.468Z,73.70
2018-11-23T14:14:32.606Z,73.70
2018-11-23T14:17:06.406Z,73.60
2018-11-23T14:19:39.940Z,73.60
2018-11-23T14:22:13.839Z,73.50
2018-11-23T14:24:48.223Z,73.50
2018-11-23T14:27:22.115Z,73.50
2018-11-23T14:29:55.591Z,73.40
2018-11-23T14:32:29.308Z,73.40
2018-11-23T14:35:02.942Z,73.40
2018-11-23T14:37:37.219Z,73.40
2018-11-23T14:40:11.866Z,73.30
2018-11-23T14:42:46.890Z,73.30
2018-11-23T14:45:30.968Z,73.30
2018-11-23T14:48:07.101Z,73.30
2018-11-23T14:50:47.101Z,73.20
2018-11-23T14:53:20.866Z,73.20
2018-11-23T14:55:54.406Z,73.20
2018-11-23T14:58:27.993Z,73.10
2018-11-23T15:01:01.596Z,73.10
2018-11-23T15:03:35.093Z,73.00
2018-11-23T15:06:08.654Z,73.00
2018-11-23T15:08:42.642Z,73.60
2018-11-23T15:11:16.047Z,72.90
2018-11-23T15:13:50.245Z,73.00
2018-11-23T15:16:25.007Z,72.90
2018-11-23T15:18:59.316Z,72.90
2018-11-23T15:21:33.095Z,72.80
2018-11-23T15:24:07.043Z,72.70
2018-11-23T15:26:40.648Z,72.70
2018-11-23T15:29:14.627Z,72.70
2018-11-23T15:31:48.221Z,72.80
2018-11-23T15:34:21.705Z,72.80
2018-11-23T15:36:55.401Z,72.80
2018-11-23T15:39:28.862Z,72.80
2018-11-23T15:42:02.722Z,72.90
2018-11-23T15:44:36.292Z,72.90
2018-11-23T15:47:09.973Z,72.80
2018-11-23T15:49:43.611Z,72.90
2018-11-23T15:52:17.358Z,72.90
2018-11-23T15:54:51.085Z,72.90
2018-11-23T15:57:24.987Z,73.00
2018-11-23T15:59:58.777Z,72.90
2018-11-23T16:02:32.585Z,73.10
2018-11-23T16:05:06.931Z,73.00
2018-11-23T16:07:40.954Z,73.10
2018-11-23T16:10:22.074Z,73.10
2018-11-23T16:12:57.639Z,73.20
2018-11-23T16:15:31.405Z,73.20
2018-11-23T16:18:05.602Z,73.30
2018-11-23T16:20:41.310Z,73.30
2018-11-23T16:23:17.571Z,73.30
2018-11-23T16:25:51.998Z,73.40
2018-11-23T16:28:26.210Z,73.40
2018-11-23T16:30:59.941Z,73.40
2018-11-23T16:33:34.387Z,73.40
2018-11-23T16:36:08.719Z,73.60
2018-11-23T16:38:42.410Z,73.60
2018-11-23T16:41:16.112Z,73.60
2018-11-23T16:43:49.717Z,73.80
2018-11-23T16:46:24.164Z,74.60
2018-11-23T16:48:57.997Z,73.90
2018-11-23T16:51:32.214Z,73.90
2018-11-23T16:54:05.742Z,74.00
2018-11-23T16:56:43.910Z,74.10
2018-11-23T16:59:31.118Z,74.10
2018-11-23T17:02:04.489Z,74.20
2018-11-23T17:04:38.228Z,74.20
2018-11-23T17:07:12.970Z,74.20
2018-11-23T17:09:45.867Z,74.20
2018-11-23T17:12:19.630Z,75.00
2018-11-23T17:14:53.599Z,74.30
2018-11-23T17:17:26.982Z,74.30
2018-11-23T17:20:00.722Z,74.30
2018-11-23T17:22:34.319Z,74.40
2018-11-23T17:25:09.175Z,74.30
2018-11-23T17:27:43.348Z,74.40
2018-11-23T17:30:17.924Z,74.50
2018-11-23T17:32:51.802Z,74.40
2018-11-23T17:35:25.729Z,74.40
2018-11-23T17:37:59.176Z,74.50
2018-11-23T17:40:34.690Z,74.50
2018-11-23T17:43:08.748Z,74.50
2018-11-23T17:45:43.098Z,74.50
2018-11-23T17:48:16.810Z,74.70
2018-11-23T17:50:50.346Z,74.40
2018-11-23T17:53:23.903Z,74.50
2018-11-23T17:55:57.653Z,74.60
2018-11-23T17:58:31.447Z,74.70
2018-11-23T18:01:05.882Z,74.60
2018-11-23T18:03:40.023Z,74.60
2018-11-23T18:06:13.852Z,74.50
2018-11-23T18:08:47.526Z,74.60
2018-11-23T18:11:21.054Z,74.60
2018-11-23T18:13:54.863Z,74.60
2018-11-23T18:16:28.675Z,74.50
2018-11-23T18:19:02.838Z,74.50
2018-11-23T18:21:36.386Z,74.50
2018-11-23T18:24:10.003Z,74.50
2018-11-23T18:26:43.702Z,74.60
2018-11-23T18:29:17.454Z,74.50
2018-11-23T18:31:51.044Z,74.50
2018-11-23T18:34:24.797Z,74.40
2018-11-23T18:36:58.587Z,74.40
2018-11-23T18:39:32.312Z,74.50
2018-11-23T18:42:06.319Z,74.40
2018-11-23T18:44:40.082Z,74.40
2018-11-23T18:47:13.707Z,74.40
2018-11-23T18:49:47.346Z,74.40
2018-11-23T18:52:20.882Z,74.40
2018-11-23T18:54:54.794Z,75.10
2018-11-23T18:57:28.727Z,74.50
2018-11-23T19:00:03.084Z,74.50
2018-11-23T19:02:36.661Z,74.50
2018-11-23T19:05:14.536Z,74.30
2018-11-23T19:07:48.022Z,74.30
2018-11-23T19:10:22.057Z,74.30
2018-11-23T19:12:56.259Z,74.30
2018-11-23T19:15:30.016Z,74.30
2018-11-23T19:18:03.687Z,74.30
2018-11-23T19:20:37.234Z,74.80
2018-11-23T19:23:10.849Z,74.40
2018-11-23T19:25:44.544Z,74.50
2018-11-23T19:28:18.345Z,74.40
2018-11-23T19:30:51.736Z,74.30
2018-11-23T19:33:25.243Z,74.30
2018-11-23T19:35:58.538Z,74.30
2018-11-23T19:38:32.502Z,75.00
2018-11-23T19:41:06.202Z,74.30
2018-11-23T19:43:40.080Z,74.20
2018-11-23T19:46:13.592Z,74.20
2018-11-23T19:48:47.124Z,74.20
2018-11-23T19:51:20.846Z,74.30
2018-11-23T19:53:54.868Z,75.10
2018-11-23T19:56:29.463Z,74.10
2018-11-23T19:59:02.153Z,74.10
2018-11-23T20:01:35.935Z,74.10
2018-11-23T20:04:09.639Z,74.10
2018-11-23T20:06:43.339Z,74.00
2018-11-23T20:09:16.964Z,74.00
2018-11-23T20:11:50.709Z,74.70
2018-11-23T20:14:24.445Z,74.10
2018-11-23T20:16:58.226Z,74.00
2018-11-23T20:19:31.882Z,73.90
2018-11-23T20:22:05.436Z,73.90
2018-11-23T20:24:39.264Z,73.80
2018-11-23T20:27:12.977Z,73.80
2018-11-23T20:29:46.801Z,73.70
2018-11-23T20:32:20.357Z,73.80
2018-11-23T20:34:54.067Z,73.70
2018-11-23T20:37:27.773Z,73.70
2018-11-23T20:40:01.870Z,73.80
2018-11-23T20:42:35.609Z,73.90
2018-11-23T20:45:10.165Z,73.90
2018-11-23T20:47:43.909Z,73.90
2018-11-23T20:50:17.816Z,74.00
2018-11-23T20:52:52.084Z,74.00
2018-11-23T20:55:25.676Z,74.00
2018-11-23T20:57:59.228Z,74.10
2018-11-23T21:00:33.381Z,74.10
2018-11-23T21:03:07.545Z,74.90
2018-11-23T21:05:41.070Z,74.30
2018-11-23T21:08:15.016Z,74.20
2018-11-23T21:10:48.509Z,74.30
2018-11-23T21:13:22.377Z,74.30
2018-11-23T21:15:56.511Z,74.50
2018-11-23T21:18:30.238Z,74.50
2018-11-23T21:21:03.774Z,74.60
2018-11-23T21:23:37.319Z,74.80
2018-11-23T21:26:10.778Z,74.90
2018-11-23T21:28:44.481Z,75.00
2018-11-23T21:31:18.177Z,75.10
2018-11-23T21:33:51.807Z,75.10
2018-11-23T21:36:25.415Z,75.20
2018-11-23T21:38:59.097Z,75.30
2018-11-23T21:41:32.745Z,75.40
2018-11-23T21:44:06.690Z,75.50
2018-11-23T21:46:40.374Z,75.60
2018-11-23T21:49:14.023Z,75.60
2018-11-23T21:51:47.626Z,75.70
2018-11-23T21:54:22.414Z,75.80
2018-11-23T21:56:56.139Z,75.90
2018-11-23T21:59:29.650Z,75.90
2018-11-23T22:02:07.184Z,76.00
2018-11-23T22:04:37.395Z,76.00
2018-11-23T22:07:11.652Z,75.80
2018-11-23T22:09:45.274Z,75.90
2018-11-23T22:12:19.126Z,76.00
2018-11-23T22:14:53.006Z,76.00
2018-11-23T22:17:26.685Z,76.30
2018-11-23T22:20:00.558Z,76.10
2018-11-23T22:22:34.411Z,76.20
2018-11-23T22:25:13.314Z,76.20
2018-11-23T22:27:46.890Z,76.30
2018-11-23T22:30:23.575Z,76.20
2018-11-23T22:32:57.787Z,77.00
2018-11-23T22:35:31.918Z,76.40
2018-11-23T22:38:05.449Z,76.30
2018-11-23T22:40:39.010Z,76.40
2018-11-23T22:43:12.426Z,76.30
2018-11-23T22:45:46.083Z,76.30
2018-11-23T22:48:20.122Z,76.40
2018-11-23T22:50:54.116Z,76.50
2018-11-23T22:53:27.627Z,76.50
2018-11-23T22:56:01.283Z,76.50
2018-11-23T23:01:15.818Z,76.50
2018-11-23T23:03:49.714Z,76.50
2018-11-23T23:06:23.431Z,76.70
2018-11-23T23:08:57.202Z,76.80
2018-11-23T23:11:30.642Z,76.70
2018-11-23T23:14:04.730Z,76.80
2018-11-23T23:16:38.966Z,76.80
2018-11-23T23:19:12.694Z,76.80
2018-11-23T23:21:46.526Z,76.70
2018-11-23T23:24:20.151Z,76.70
2018-11-23T23:26:53.773Z,76.80
2018-11-23T23:29:27.439Z,76.80
2018-11-23T23:32:00.994Z,76.80
2018-11-23T23:34:34.726Z,76.90
2018-11-23T23:37:08.239Z,77.60
2018-11-23T23:39:41.670Z,76.90
2018-11-23T23:42:15.305Z,76.90
2018-11-23T23:44:49.181Z,76.90
2018-11-23T23:47:22.950Z,76.90
2018-11-23T23:49:56.483Z,76.90
2018-11-23T23:52:30.179Z,76.90
2018-11-23T23:55:04.870Z,76.90
2018-11-23T23:57:39.642Z,76.90
